Time;durP1;ratioP1;P1;durP2;ratioP2;P2;SDS_P1;SDS_P2;PMS_P1;PMS_P2;Temp;Humidity;BMP_temperature;BMP_pressure;BME280_temperature;BME280_humidity;BME280_pressure;Samples;Min_cycle;Max_cycle;Signal;HPM_P1;HPM_P2
2023/03/09 00:01:30;;;;;;;101.47;32.63;;;4.90;99.90;;;;;;5056887;28;20152;-82
2023/03/09 00:03:59;;;;;;;99.07;30.95;;;4.90;99.90;;;;;;5038884;28;20160;-82
2023/03/09 00:06:26;;;;;;;94.75;30.50;;;4.90;99.90;;;;;;5057343;28;20188;-82
2023/03/09 00:08:52;;;;;;;104.50;32.83;;;4.90;99.90;;;;;;5056203;28;20184;-82
2023/03/09 00:11:20;;;;;;;101.15;34.10;;;4.90;99.90;;;;;;5056947;28;20168;-82
2023/03/09 00:13:48;;;;;;;99.85;31.73;;;5.00;99.90;;;;;;5056674;28;20181;-82
2023/03/09 00:16:29;;;;;;;96.22;29.58;;;5.00;99.90;;;;;;5039187;28;20597;-82
2023/03/09 00:18:57;;;;;;;97.18;29.77;;;5.10;99.90;;;;;;5057015;28;20157;-81
2023/03/09 00:21:34;;;;;;;101.15;34.40;;;5.10;99.90;;;;;;5038336;28;20164;-82
2023/03/09 00:24:24;;;;;;;101.60;35.30;;;5.00;99.90;;;;;;5038238;28;20180;-82
2023/03/09 00:27:29;;;;;;;99.95;32.95;;;5.00;99.90;;;;;;5038051;28;20242;-82
2023/03/09 00:29:55;;;;;;;103.28;31.08;;;5.10;99.90;;;;;;5057079;28;20565;-82
2023/03/09 00:32:47;;;;;;;95.05;31.45;;;5.00;99.90;;;;;;5056688;28;20208;-82
2023/03/09 00:35:18;;;;;;;103.55;30.75;;;5.00;99.90;;;;;;5056846;28;20145;-82
2023/03/09 00:37:46;;;;;;;95.43;28.45;;;5.00;99.90;;;;;;5055348;28;20191;-81
2023/03/09 00:40:14;;;;;;;100.70;31.95;;;5.00;99.90;;;;;;5036981;28;20225;-82
2023/03/09 00:42:44;;;;;;;95.30;29.88;;;5.00;99.90;;;;;;5055626;28;20188;-82
2023/03/09 00:45:15;;;;;;;101.97;33.63;;;5.00;99.90;;;;;;5055950;28;20243;-82
2023/03/09 00:47:41;;;;;;;102.45;32.65;;;5.00;99.90;;;;;;5056221;28;20179;-81
2023/03/09 00:50:08;;;;;;;96.13;28.97;;;5.00;99.90;;;;;;5056026;28;20157;-81
2023/03/09 00:52:33;;;;;;;98.55;28.95;;;5.00;99.90;;;;;;5038219;28;20181;-82
2023/03/09 00:54:59;;;;;;;103.63;32.57;;;5.00;99.90;;;;;;5055688;28;20195;-82
2023/03/09 00:57:26;;;;;;;97.78;28.70;;;5.00;99.90;;;;;;5055829;28;20165;-82
2023/03/09 00:59:52;;;;;;;97.05;28.83;;;5.00;99.90;;;;;;5037545;28;20165;-82
2023/03/09 01:02:22;;;;;;;109.82;31.75;;;5.00;99.90;;;;;;5055266;28;20183;-82
2023/03/09 01:04:48;;;;;;;99.63;31.60;;;5.00;99.90;;;;;;5055799;28;20171;-82
2023/03/09 01:07:14;;;;;;;100.30;32.33;;;5.10;99.90;;;;;;5055895;28;20182;-82
2023/03/09 01:09:40;;;;;;;97.47;29.63;;;5.10;99.90;;;;;;5037893;28;20165;-82
2023/03/09 01:12:07;;;;;;;101.93;30.10;;;5.10;99.90;;;;;;5055966;28;20287;-82
2023/03/09 01:14:33;;;;;;;94.50;30.63;;;5.20;99.90;;;;;;5037700;28;20636;-82
2023/03/09 01:16:59;;;;;;;95.90;28.33;;;5.20;99.90;;;;;;5037455;28;20326;-82
2023/03/09 01:19:25;;;;;;;101.07;29.77;;;5.20;99.90;;;;;;5055491;28;20199;-82
2023/03/09 01:21:50;;;;;;;96.72;28.40;;;5.20;99.90;;;;;;5055660;28;20200;-82
2023/03/09 01:24:16;;;;;;;93.10;29.20;;;5.10;99.90;;;;;;5037682;28;20242;-82
2023/03/09 01:26:44;;;;;;;98.47;30.47;;;5.10;99.90;;;;;;5037366;28;20259;-82
2023/03/09 01:29:19;;;;;;;98.70;30.35;;;5.20;99.90;;;;;;5055404;28;20244;-82
2023/03/09 01:31:44;;;;;;;101.25;32.97;;;5.10;99.90;;;;;;5037877;28;20215;-82
2023/03/09 01:34:12;;;;;;;93.20;31.00;;;5.10;99.90;;;;;;5055474;28;20199;-82
2023/03/09 01:36:39;;;;;;;100.75;29.45;;;5.10;99.90;;;;;;5042278;28;20180;-82
2023/03/09 01:39:05;;;;;;;95.97;30.08;;;5.10;99.90;;;;;;5059282;28;20160;-82
2023/03/09 01:41:31;;;;;;;96.70;28.07;;;5.10;99.90;;;;;;5059636;28;20215;-82
2023/03/09 01:43:56;;;;;;;97.70;26.57;;;5.00;99.90;;;;;;5059498;28;20165;-82
2023/03/09 01:46:23;;;;;;;90.20;24.03;;;5.00;99.90;;;;;;5059196;28;20637;-82
2023/03/09 01:49:09;;;;;;;92.50;25.15;;;5.00;99.90;;;;;;5059008;28;20213;-82
2023/03/09 01:51:49;;;;;;;96.00;26.80;;;5.00;99.90;;;;;;5059425;28;20145;-82
2023/03/09 01:54:44;;;;;;;98.13;26.98;;;5.00;99.90;;;;;;5058814;28;20241;-82
2023/03/09 01:57:39;;;;;;;88.90;21.90;;;4.90;99.90;;;;;;5031992;28;20172;-82
2023/03/09 02:00:19;;;;;;;93.28;24.25;;;4.90;99.90;;;;;;5059419;28;20157;-82
2023/03/09 02:02:49;;;;;;;96.07;27.92;;;4.90;99.90;;;;;;5040605;28;20180;-82
2023/03/09 02:05:20;;;;;;;98.43;26.17;;;4.90;99.90;;;;;;5058828;28;20247;-82
2023/03/09 02:07:50;;;;;;;95.85;28.45;;;4.90;99.90;;;;;;5058695;28;20539;-82
2023/03/09 02:10:44;;;;;;;93.13;26.40;;;4.90;99.90;;;;;;5040629;28;20251;-82
2023/03/09 02:13:17;;;;;;;94.05;28.17;;;4.90;99.90;;;;;;5058766;28;20177;-82
2023/03/09 02:15:42;;;;;;;98.70;26.63;;;4.90;99.90;;;;;;5040334;28;20215;-82
2023/03/09 02:18:08;;;;;;;96.90;28.90;;;4.90;99.90;;;;;;5040771;28;20172;-82
2023/03/09 02:20:55;;;;;;;93.82;28.48;;;5.00;99.90;;;;;;5058913;28;20164;-82
2023/03/09 02:23:33;;;;;;;96.07;27.42;;;5.00;99.90;;;;;;5058670;28;20199;-82
2023/03/09 02:26:25;;;;;;;100.00;29.02;;;5.00;99.90;;;;;;5058859;28;20156;-82
2023/03/09 02:28:52;;;;;;;99.60;33.53;;;5.10;99.90;;;;;;5058757;28;20246;-82
2023/03/09 02:31:19;;;;;;;103.95;36.50;;;5.00;99.90;;;;;;5040204;28;20165;-82
2023/03/09 02:33:46;;;;;;;98.05;37.90;;;5.00;99.90;;;;;;5057888;28;20549;-82
2023/03/09 02:36:12;;;;;;;99.53;37.67;;;4.90;99.90;;;;;;5058214;28;20190;-82
2023/03/09 02:38:37;;;;;;;91.70;37.30;;;4.90;99.90;;;;;;5058258;28;20247;-82
2023/03/09 02:41:06;;;;;;;97.10;34.27;;;4.90;99.90;;;;;;5058326;28;20575;-82
2023/03/09 02:43:52;;;;;;;88.55;30.13;;;4.80;99.90;;;;;;5058057;28;20593;-82
2023/03/09 02:46:17;;;;;;;98.75;34.25;;;4.70;99.90;;;;;;5058441;28;20179;-82
2023/03/09 02:48:43;;;;;;;94.33;35.13;;;4.70;99.90;;;;;;5058448;28;20188;-82
2023/03/09 02:51:08;;;;;;;89.67;29.27;;;4.70;99.90;;;;;;5040807;28;20164;-82
2023/03/09 02:53:35;;;;;;;96.10;32.30;;;4.80;99.90;;;;;;5058768;28;20223;-82
2023/03/09 02:56:01;;;;;;;95.30;32.40;;;4.70;99.90;;;;;;5058344;28;20169;-82
2023/03/09 02:58:27;;;;;;;100.47;34.25;;;4.60;99.90;;;;;;5058338;28;20251;-82
2023/03/09 03:00:52;;;;;;;98.50;32.43;;;4.50;99.90;;;;;;5058531;28;20192;-82
2023/03/09 03:03:20;;;;;;;102.50;35.90;;;4.60;99.90;;;;;;5058160;28;20435;-82
2023/03/09 03:05:46;;;;;;;103.65;32.05;;;4.50;99.90;;;;;;5039852;28;20598;-82
2023/03/09 03:08:12;;;;;;;98.60;33.90;;;4.50;99.90;;;;;;5057607;28;20595;-82
2023/03/09 03:10:37;;;;;;;98.83;32.70;;;4.50;99.90;;;;;;5057635;28;20161;-82
2023/03/09 03:13:03;;;;;;;105.50;33.37;;;4.60;99.90;;;;;;5057471;28;20334;-82
2023/03/09 03:15:29;;;;;;;104.10;33.33;;;4.50;99.90;;;;;;5058100;28;20172;-82
2023/03/09 03:17:54;;;;;;;99.10;32.53;;;4.50;99.90;;;;;;5057612;28;20263;-82
2023/03/09 03:20:20;;;;;;;103.13;28.97;;;4.50;99.90;;;;;;5057596;28;20247;-82
2023/03/09 03:22:46;;;;;;;102.70;33.13;;;4.60;99.90;;;;;;5056915;28;20657;-82
2023/03/09 03:25:16;;;;;;;103.55;36.05;;;4.50;99.90;;;;;;5057616;28;20446;-82
2023/03/09 03:27:42;;;;;;;110.47;33.45;;;4.50;99.90;;;;;;5057839;28;20189;-82
2023/03/09 03:30:09;;;;;;;115.18;37.60;;;4.50;99.90;;;;;;5057979;28;20262;-82
2023/03/09 03:32:34;;;;;;;107.45;33.75;;;4.60;99.90;;;;;;5039521;28;20216;-82
2023/03/09 03:35:00;;;;;;;105.27;33.07;;;4.50;99.90;;;;;;5057198;28;20168;-82
2023/03/09 03:37:26;;;;;;;105.10;31.80;;;4.60;99.90;;;;;;5057278;28;20180;-82
2023/03/09 03:39:51;;;;;;;103.63;30.40;;;4.60;99.90;;;;;;5057229;28;20200;-82
2023/03/09 03:42:17;;;;;;;107.87;32.20;;;4.60;99.90;;;;;;5057440;28;20184;-82
2023/03/09 03:44:43;;;;;;;102.93;31.67;;;4.60;99.90;;;;;;5038949;28;20175;-82
2023/03/09 03:47:09;;;;;;;115.10;30.67;;;4.60;99.90;;;;;;5039538;28;20168;-82
2023/03/09 03:49:34;;;;;;;108.10;32.03;;;4.60;99.90;;;;;;5057346;28;20156;-82
2023/03/09 03:52:00;;;;;;;111.03;30.53;;;4.60;99.90;;;;;;5057341;28;20421;-82
2023/03/09 03:54:26;;;;;;;106.17;29.13;;;4.70;99.90;;;;;;5057646;28;20191;-82
2023/03/09 03:56:52;;;;;;;105.20;29.77;;;4.70;99.90;;;;;;5056363;28;20165;-82
2023/03/09 03:59:17;;;;;;;105.83;30.97;;;4.70;99.90;;;;;;5056995;28;20644;-82
2023/03/09 04:01:43;;;;;;;100.33;25.37;;;4.80;99.90;;;;;;5038815;28;20196;-82
2023/03/09 04:04:09;;;;;;;98.40;25.40;;;4.80;99.90;;;;;;5056635;28;20567;-82
2023/03/09 04:06:35;;;;;;;103.70;26.20;;;4.80;99.90;;;;;;5057136;28;20191;-82
2023/03/09 04:09:01;;;;;;;106.93;28.40;;;4.80;99.90;;;;;;5038659;28;20969;-82
2023/03/09 04:11:26;;;;;;;96.03;25.70;;;4.80;99.90;;;;;;5056720;28;20409;-82
2023/03/09 04:13:52;;;;;;;103.93;30.50;;;4.80;99.90;;;;;;5056594;28;20398;-82
2023/03/09 04:16:18;;;;;;;99.87;23.17;;;4.80;99.90;;;;;;5056303;28;20399;-82
2023/03/09 04:18:44;;;;;;;100.45;25.05;;;4.80;99.90;;;;;;5038921;28;20643;-82
2023/03/09 04:21:09;;;;;;;101.27;25.83;;;4.70;99.90;;;;;;5056355;28;20173;-82
2023/03/09 04:23:35;;;;;;;99.40;26.27;;;4.70;99.90;;;;;;5056837;28;20648;-82
2023/03/09 04:26:04;;;;;;;103.00;27.07;;;4.80;99.90;;;;;;5038644;28;20282;-82
2023/03/09 04:28:29;;;;;;;101.28;27.02;;;4.70;99.90;;;;;;5049303;28;20192;-82
2023/03/09 04:30:55;;;;;;;102.03;31.43;;;4.70;99.90;;;;;;5056971;28;20255;-82
2023/03/09 04:33:21;;;;;;;113.90;34.47;;;4.70;99.90;;;;;;5038389;28;20180;-82
2023/03/09 04:35:47;;;;;;;116.53;32.70;;;4.60;99.90;;;;;;5056079;28;20419;-82
2023/03/09 04:38:14;;;;;;;110.63;34.60;;;4.60;99.90;;;;;;5039274;28;20430;-82
2023/03/09 04:40:40;;;;;;;109.47;33.53;;;4.60;99.90;;;;;;5038042;28;20460;-82
2023/03/09 04:43:06;;;;;;;107.85;29.85;;;4.60;99.90;;;;;;5056163;28;20192;-82
2023/03/09 04:45:32;;;;;;;112.57;33.65;;;4.60;99.90;;;;;;5056282;28;20665;-82
2023/03/09 04:47:59;;;;;;;109.10;32.77;;;4.60;99.90;;;;;;5038166;28;20290;-82
2023/03/09 04:50:32;;;;;;;106.05;32.75;;;4.50;99.90;;;;;;5037884;28;20411;-82
2023/03/09 04:52:58;;;;;;;108.65;35.40;;;4.40;99.90;;;;;;5038329;28;20191;-81
2023/03/09 04:55:24;;;;;;;113.07;36.83;;;4.40;99.90;;;;;;5055861;28;20524;-81
2023/03/09 04:57:49;;;;;;;109.80;34.47;;;4.40;99.90;;;;;;5055904;28;20165;-82
2023/03/09 05:00:16;;;;;;;116.77;36.10;;;4.40;99.90;;;;;;5038610;28;20180;-82
2023/03/09 05:02:42;;;;;;;113.35;33.70;;;4.40;99.90;;;;;;5037950;28;20192;-82
2023/03/09 05:05:09;;;;;;;108.70;29.80;;;4.50;99.90;;;;;;5055511;28;20168;-82
2023/03/09 05:07:36;;;;;;;107.78;30.63;;;4.60;99.90;;;;;;5038250;28;20450;-82
2023/03/09 05:10:02;;;;;;;109.05;29.52;;;4.60;99.90;;;;;;5055435;28;20160;-82
2023/03/09 05:12:31;;;;;;;100.57;28.10;;;4.50;99.90;;;;;;5055574;28;20243;-82
2023/03/09 05:15:00;;;;;;;101.07;26.05;;;4.50;99.90;;;;;;5055726;28;20422;-81
2023/03/09 05:17:27;;;;;;;102.38;28.50;;;4.50;99.90;;;;;;5056306;28;20558;-82
2023/03/09 05:19:53;;;;;;;104.95;29.00;;;4.50;99.90;;;;;;5055746;28;20214;-82
2023/03/09 05:22:18;;;;;;;98.23;26.67;;;4.60;99.90;;;;;;5055835;28;20184;-82
2023/03/09 05:24:44;;;;;;;98.53;25.73;;;4.60;99.90;;;;;;5055802;28;20164;-82
2023/03/09 05:27:12;;;;;;;96.37;23.83;;;4.60;99.90;;;;;;5055905;28;20164;-82
2023/03/09 05:29:38;;;;;;;102.07;24.73;;;4.60;99.90;;;;;;5037446;28;20172;-82
2023/03/09 05:32:38;;;;;;;94.63;23.50;;;4.60;99.90;;;;;;5066754;23;20236;-81
2023/03/09 05:35:27;;;;;;;93.28;21.15;;;4.60;99.90;;;;;;5035288;28;20180;-82
2023/03/09 05:41:51;;;;;;;96.40;27.02;;;4.50;99.90;;;;;;5038296;28;20239;-86
2023/03/09 05:48:14;;;;;;;92.50;23.77;;;4.40;99.90;;;;;;5018608;28;20580;-87
2023/03/09 05:51:27;;;;;;;;;;;;;;;;;;;;;
2023/03/09 06:01:49;;;;;;;103.20;22.88;;;4.50;99.90;;;;;;4976087;28;20175;-86
2023/03/09 06:04:53;;;;;;;94.75;20.73;;;4.40;99.90;;;;;;5017323;28;20200;-86
2023/03/09 06:12:05;;;;;;;;;;;;;;;;;;;;;
2023/03/09 06:18:02;;;;;;;97.30;23.20;;;4.40;99.90;;;;;;4833916;29;20544;-87
2023/03/09 06:20:45;;;;;;;95.68;21.70;;;4.50;99.90;;;;;;4831477;29;20168;-87
2023/03/09 06:26:39;;;;;;;89.85;18.80;;;4.50;99.90;;;;;;4867923;29;20186;-86
2023/03/09 06:30:03;;;;;;;;;;;;;;;;;;;;;
2023/03/09 06:33:07;;;;;;;95.68;23.73;;;4.50;99.90;;;;;;4941562;29;20199;-87
2023/03/09 06:35:45;;;;;;;95.03;19.23;;;4.50;99.90;;;;;;4924941;29;20188;-87
2023/03/09 06:48:40;;;;;;;91.50;20.38;;;4.60;99.90;;;;;;4923276;29;20207;-86
2023/03/09 06:51:16;;;;;;;92.47;22.65;;;4.60;99.90;;;;;;4907985;29;20714;-86
2023/03/09 06:57:49;;;;;;;91.53;19.92;;;4.50;99.90;;;;;;4976826;28;20199;-85
2023/03/09 07:01:05;;;;;;;;;;;;;;;;;;;;;
2023/03/09 07:14:42;;;;;;;90.38;18.02;;;4.70;99.90;;;;;;5019240;28;20173;-87
2023/03/09 07:17:54;;;;;;;82.25;16.67;;;4.80;99.90;;;;;;5023858;28;20587;-86
2023/03/09 07:20:55;;;;;;;85.88;17.40;;;4.80;99.90;;;;;;5021670;28;20191;-87
2023/03/09 07:24:43;;;;;;;87.78;19.05;;;4.80;99.90;;;;;;5041128;28;20256;-86
2023/03/09 07:30:44;;;;;;;84.57;16.83;;;4.80;99.90;;;;;;5038418;28;20181;-86
2023/03/09 07:33:20;;;;;;;93.80;19.13;;;4.70;99.90;;;;;;5041723;28;20299;-86
2023/03/09 07:35:46;;;;;;;84.78;19.80;;;4.80;99.90;;;;;;5043742;28;20157;-87
2023/03/09 07:38:15;;;;;;;83.32;18.13;;;4.70;99.90;;;;;;5044562;28;20165;-86
2023/03/09 07:40:49;;;;;;;90.68;20.73;;;4.80;99.90;;;;;;5044992;28;20161;-86
2023/03/09 07:43:23;;;;;;;91.80;20.13;;;4.90;99.90;;;;;;5045066;28;20275;-86
2023/03/09 07:45:59;;;;;;;86.05;18.60;;;5.00;99.90;;;;;;5043669;28;20168;-87
2023/03/09 07:48:31;;;;;;;80.63;16.30;;;5.20;99.90;;;;;;5043124;28;20184;-87
2023/03/09 07:51:10;;;;;;;80.55;14.93;;;5.30;99.90;;;;;;5042568;28;20148;-87
2023/03/09 07:53:40;;;;;;;82.85;16.10;;;5.30;99.90;;;;;;5040713;28;20192;-84
2023/03/09 07:56:10;;;;;;;84.25;15.65;;;5.30;99.90;;;;;;5041035;28;20172;-85
2023/03/09 07:58:38;;;;;;;86.20;15.82;;;5.40;99.90;;;;;;5041211;28;20170;-85
2023/03/09 08:01:06;;;;;;;83.30;16.42;;;5.30;99.90;;;;;;5058458;28;20264;-84
2023/03/09 08:03:35;;;;;;;82.28;15.13;;;5.30;99.90;;;;;;5043584;28;20181;-85
2023/03/09 08:06:05;;;;;;;82.40;14.15;;;5.40;99.90;;;;;;5041903;28;20218;-85
2023/03/09 08:08:31;;;;;;;84.28;16.25;;;5.40;99.90;;;;;;5043377;28;20193;-84
2023/03/09 08:11:03;;;;;;;78.28;14.50;;;5.40;99.90;;;;;;5044541;28;20244;-84
2023/03/09 08:13:30;;;;;;;80.85;16.65;;;5.40;99.90;;;;;;5044905;28;20228;-84
2023/03/09 08:16:02;;;;;;;77.50;14.18;;;5.30;99.90;;;;;;5042576;28;20256;-86
2023/03/09 08:18:31;;;;;;;83.07;16.10;;;5.40;99.90;;;;;;5042695;28;20181;-85
2023/03/09 08:21:04;;;;;;;79.55;15.60;;;5.40;99.90;;;;;;5044227;28;20165;-85
2023/03/09 08:23:29;;;;;;;78.45;13.50;;;5.50;99.90;;;;;;5045548;28;20268;-85
2023/03/09 08:25:58;;;;;;;79.07;14.77;;;5.60;99.90;;;;;;5042948;28;20169;-84
2023/03/09 08:28:24;;;;;;;80.93;14.88;;;5.70;99.90;;;;;;5026976;28;20193;-84
2023/03/09 08:30:49;;;;;;;79.80;15.13;;;5.60;99.90;;;;;;5043050;28;20173;-85
2023/03/09 08:33:18;;;;;;;82.03;14.30;;;5.70;99.90;;;;;;5044446;28;20235;-85
2023/03/09 08:35:44;;;;;;;76.45;13.52;;;5.80;99.90;;;;;;5025983;28;20551;-85
2023/03/09 08:38:12;;;;;;;75.00;12.70;;;5.80;99.90;;;;;;5044293;28;20291;-84
2023/03/09 08:40:38;;;;;;;77.22;13.05;;;5.80;99.90;;;;;;5044924;28;20644;-85
2023/03/09 08:43:05;;;;;;;78.22;12.68;;;5.70;99.90;;;;;;5045308;28;20196;-84
2023/03/09 08:45:31;;;;;;;76.63;13.80;;;5.80;99.90;;;;;;5044095;28;20184;-84
2023/03/09 08:47:56;;;;;;;75.87;13.70;;;5.90;99.90;;;;;;5028143;28;20204;-84
2023/03/09 08:50:25;;;;;;;79.77;12.93;;;5.90;99.90;;;;;;5045888;28;20165;-85
2023/03/09 08:52:51;;;;;;;76.13;13.65;;;6.00;99.90;;;;;;5045637;28;20423;-84
2023/03/09 08:55:17;;;;;;;74.75;12.23;;;6.00;99.90;;;;;;5045657;28;20210;-85
2023/03/09 08:57:43;;;;;;;77.07;13.27;;;6.10;99.90;;;;;;5029054;28;20632;-84
2023/03/09 09:00:10;;;;;;;75.90;13.60;;;6.20;99.90;;;;;;5046271;28;20406;-84
2023/03/09 09:02:45;;;;;;;72.07;12.18;;;6.20;99.90;;;;;;5045733;28;20419;-84
2023/03/09 09:05:11;;;;;;;74.85;14.43;;;6.30;99.90;;;;;;5045131;28;20315;-84
2023/03/09 09:07:37;;;;;;;76.00;14.02;;;6.20;99.90;;;;;;5045423;28;20169;-84
2023/03/09 09:10:07;;;;;;;74.17;12.40;;;6.30;99.90;;;;;;5029334;28;20211;-84
2023/03/09 09:12:37;;;;;;;73.88;13.98;;;6.40;99.90;;;;;;5046947;28;20181;-85
2023/03/09 09:15:09;;;;;;;75.63;12.70;;;6.50;99.90;;;;;;5029204;28;20196;-84
2023/03/09 09:17:36;;;;;;;73.90;11.95;;;6.50;99.90;;;;;;5046641;28;20149;-87
2023/03/09 09:20:03;;;;;;;75.05;13.15;;;6.60;99.90;;;;;;5058856;28;20172;-88
2023/03/09 09:22:29;;;;;;;73.85;13.80;;;6.70;99.90;;;;;;5043933;28;20252;-88
2023/03/09 09:25:01;;;;;;;73.80;16.40;;;6.70;99.90;;;;;;5041337;28;20208;-88
2023/03/09 09:27:30;;;;;;;73.35;13.85;;;6.70;99.90;;;;;;5022760;28;20269;-88
2023/03/09 09:30:09;;;;;;;74.00;16.98;;;6.70;99.90;;;;;;5039888;28;20192;-88
2023/03/09 09:32:40;;;;;;;73.57;15.73;;;6.60;99.90;;;;;;5038901;28;20204;-88
2023/03/09 09:35:11;;;;;;;74.75;16.90;;;6.60;99.90;;;;;;5022223;28;20632;-88
2023/03/09 09:37:41;;;;;;;78.55;16.60;;;6.70;99.90;;;;;;5038947;28;20162;-87
2023/03/09 09:40:15;;;;;;;72.38;13.18;;;6.70;99.90;;;;;;5023233;28;20161;-88
2023/03/09 09:42:43;;;;;;;73.57;15.23;;;6.80;99.90;;;;;;5039395;28;20192;-87
2023/03/09 09:45:31;;;;;;;72.38;14.32;;;7.00;99.90;;;;;;5041602;28;20164;-87
2023/03/09 09:48:04;;;;;;;75.93;14.68;;;7.00;99.90;;;;;;5042175;28;20185;-86
2023/03/09 09:50:45;;;;;;;71.38;14.05;;;7.00;99.90;;;;;;5025945;28;20168;-85
2023/03/09 09:53:27;;;;;;;72.50;15.35;;;7.10;99.90;;;;;;5041650;28;20195;-86
2023/03/09 09:55:53;;;;;;;72.68;15.35;;;7.10;99.90;;;;;;5044129;28;20144;-86
2023/03/09 09:58:44;;;;;;;72.28;14.40;;;7.20;99.90;;;;;;5046445;28;20173;-87
2023/03/09 10:01:52;;;;;;;72.13;17.42;;;7.20;99.90;;;;;;5046417;28;20184;-86
2023/03/09 10:04:30;;;;;;;73.07;13.52;;;7.20;99.90;;;;;;4965532;29;20212;-86
2023/03/09 10:07:05;;;;;;;72.63;14.52;;;7.20;99.90;;;;;;4966188;29;20201;-86
2023/03/09 10:09:33;;;;;;;71.75;14.45;;;7.20;99.90;;;;;;5006926;28;20255;-85
2023/03/09 10:12:06;;;;;;;75.43;12.57;;;7.20;99.90;;;;;;5045589;28;20189;-85
2023/03/09 10:14:40;;;;;;;71.85;14.70;;;7.20;99.90;;;;;;5045947;28;20620;-86
2023/03/09 10:17:21;;;;;;;71.70;13.07;;;7.10;99.90;;;;;;5028510;28;20177;-86
2023/03/09 10:19:48;;;;;;;73.88;15.93;;;7.00;99.90;;;;;;5027543;28;20161;-86
2023/03/09 10:22:21;;;;;;;74.43;18.13;;;6.90;99.90;;;;;;5046167;28;20184;-86
2023/03/09 10:24:51;;;;;;;72.65;15.80;;;6.90;99.90;;;;;;5045499;28;20173;-86
2023/03/09 10:27:41;;;;;;;72.03;14.35;;;7.00;99.90;;;;;;5043919;28;20157;-86
2023/03/09 10:30:18;;;;;;;75.22;16.75;;;7.10;99.90;;;;;;5027439;28;20199;-86
2023/03/09 10:32:53;;;;;;;73.32;17.20;;;7.20;99.90;;;;;;5045265;28;20188;-86
2023/03/09 10:35:18;;;;;;;78.25;16.90;;;7.30;99.90;;;;;;5026893;28;20497;-86
2023/03/09 10:37:46;;;;;;;76.07;16.70;;;7.30;99.90;;;;;;5045041;28;20169;-85
2023/03/09 10:40:20;;;;;;;77.90;18.23;;;7.40;99.90;;;;;;5045400;28;20165;-85
2023/03/09 10:42:46;;;;;;;75.95;15.93;;;7.50;99.90;;;;;;5045045;28;20273;-86
2023/03/09 10:45:27;;;;;;;76.90;17.90;;;7.60;99.90;;;;;;5042927;28;20181;-86
2023/03/09 10:48:06;;;;;;;78.68;15.70;;;7.70;99.90;;;;;;5044341;28;20188;-85
2023/03/09 10:50:40;;;;;;;75.82;17.13;;;7.80;99.90;;;;;;5028474;28;20219;-86
2023/03/09 10:53:37;;;;;;;75.70;17.15;;;7.80;99.90;;;;;;5042982;28;20249;-87
2023/03/09 10:56:23;;;;;;;75.00;17.77;;;7.80;99.90;;;;;;5008677;28;20652;-87
2023/03/09 10:59:07;;;;;;;73.55;16.73;;;7.80;99.90;;;;;;5041484;28;20153;-86
2023/03/09 11:01:43;;;;;;;75.03;16.95;;;8.00;99.90;;;;;;5042739;28;20141;-87
2023/03/09 11:04:29;;;;;;;72.68;15.93;;;8.00;99.90;;;;;;5042215;28;20149;-87
2023/03/09 11:06:54;;;;;;;70.95;13.75;;;8.00;99.90;;;;;;5040905;28;20599;-87
2023/03/09 11:09:35;;;;;;;75.20;15.60;;;8.00;99.90;;;;;;5041767;28;20316;-87
2023/03/09 11:12:31;;;;;;;74.65;15.45;;;8.00;99.90;;;;;;5041938;28;20195;-87
2023/03/09 11:14:59;;;;;;;73.93;16.05;;;8.00;99.90;;;;;;5041530;28;20237;-87
2023/03/09 11:17:45;;;;;;;79.15;17.98;;;8.10;99.90;;;;;;5041901;28;20168;-87
2023/03/09 11:20:20;;;;;;;75.00;15.35;;;8.20;99.90;;;;;;5041797;28;20141;-87
2023/03/09 11:23:16;;;;;;;78.68;17.65;;;8.20;99.90;;;;;;5041138;28;20180;-87
2023/03/09 11:26:07;;;;;;;74.25;15.73;;;8.00;99.90;;;;;;5041455;28;20152;-87
2023/03/09 11:28:49;;;;;;;75.88;19.02;;;7.90;99.90;;;;;;5023816;28;20653;-87
2023/03/09 11:31:25;;;;;;;75.53;17.55;;;7.80;99.90;;;;;;5041656;28;20149;-87
2023/03/09 11:34:08;;;;;;;78.32;18.58;;;7.80;99.90;;;;;;5023276;28;20169;-87
2023/03/09 11:37:06;;;;;;;77.47;19.33;;;7.90;99.90;;;;;;5105073;23;20232;-81
2023/03/09 11:39:35;;;;;;;73.93;17.83;;;8.00;99.90;;;;;;4964197;28;20174;-80
2023/03/09 11:42:05;;;;;;;74.68;18.40;;;8.00;99.90;;;;;;5022978;28;20572;-80
2023/03/09 11:44:38;;;;;;;75.18;19.27;;;8.10;99.90;;;;;;5020197;28;20222;-80
2023/03/09 11:47:10;;;;;;;78.65;16.42;;;8.30;99.90;;;;;;5037660;28;20280;-80
2023/03/09 11:49:37;;;;;;;78.43;19.80;;;8.50;99.90;;;;;;5019573;28;20223;-80
2023/03/09 11:52:06;;;;;;;78.32;19.10;;;8.70;99.90;;;;;;5037040;28;20187;-80
2023/03/09 11:54:41;;;;;;;77.72;16.52;;;8.80;99.90;;;;;;5037764;28;20157;-80
2023/03/09 11:57:13;;;;;;;72.55;11.70;;;8.90;99.90;;;;;;5037525;28;20152;-80
2023/03/09 11:59:49;;;;;;;75.13;12.35;;;8.80;99.90;;;;;;5037811;28;20157;-80
2023/03/09 12:02:20;;;;;;;75.30;10.73;;;8.90;99.90;;;;;;5038243;28;20173;-80
2023/03/09 12:04:49;;;;;;;76.15;11.30;;;8.90;99.90;;;;;;5037669;28;20161;-80
2023/03/09 12:07:15;;;;;;;74.30;12.40;;;9.00;99.90;;;;;;5019836;28;20674;-80
2023/03/09 12:09:51;;;;;;;77.47;13.30;;;9.10;99.90;;;;;;5037748;28;20189;-80
2023/03/09 12:12:42;;;;;;;75.22;11.85;;;9.00;99.90;;;;;;5037256;28;20322;-80
2023/03/09 12:15:34;;;;;;;75.18;11.18;;;9.00;99.90;;;;;;5019490;28;20161;-80
2023/03/09 12:18:04;;;;;;;78.75;12.15;;;9.00;99.90;;;;;;5035165;28;20177;-80
2023/03/09 12:20:37;;;;;;;82.63;12.68;;;9.00;99.90;;;;;;5020224;28;20169;-80
2023/03/09 12:23:03;;;;;;;75.45;11.10;;;8.90;99.90;;;;;;5037186;28;20185;-80
2023/03/09 12:25:34;;;;;;;75.40;11.20;;;8.90;99.90;;;;;;5037123;28;20215;-80
2023/03/09 12:28:02;;;;;;;74.97;11.32;;;8.80;99.90;;;;;;5037284;28;20719;-80
2023/03/09 12:30:53;;;;;;;77.03;11.68;;;8.70;99.90;;;;;;5019078;28;20231;-80
2023/03/09 12:33:40;;;;;;;74.10;11.88;;;8.50;99.90;;;;;;5037074;28;20185;-80
2023/03/09 12:36:25;;;;;;;75.50;12.63;;;8.50;99.90;;;;;;5036790;28;20162;-81
2023/03/09 12:39:29;;;;;;;74.07;12.45;;;8.60;99.90;;;;;;5037522;28;20164;-81
2023/03/09 12:42:01;;;;;;;77.18;12.55;;;8.40;99.90;;;;;;5036513;28;20208;-81
2023/03/09 12:44:45;;;;;;;74.70;12.93;;;8.30;99.90;;;;;;5019183;28;20277;-81
2023/03/09 12:47:36;;;;;;;75.53;13.15;;;8.10;99.90;;;;;;5019328;28;20180;-81
2023/03/09 12:50:24;;;;;;;78.32;18.05;;;8.10;99.90;;;;;;5035206;28;20173;-81
2023/03/09 12:53:12;;;;;;;76.38;21.60;;;8.00;99.90;;;;;;5037078;28;20189;-81
2023/03/09 12:55:37;;;;;;;78.47;21.65;;;8.00;99.90;;;;;;5036678;28;20568;-81
2023/03/09 12:58:21;;;;;;;80.57;23.77;;;8.00;99.90;;;;;;5036375;28;20161;-81
2023/03/09 13:01:20;;;;;;;82.38;24.92;;;8.20;99.90;;;;;;5036267;28;20169;-81
2023/03/09 13:03:52;;;;;;;79.03;19.35;;;8.30;99.90;;;;;;5015142;28;20192;-81
2023/03/09 13:06:44;;;;;;;80.47;22.05;;;8.30;99.90;;;;;;5037177;28;20609;-81
2023/03/09 13:09:40;;;;;;;78.10;19.33;;;8.60;99.90;;;;;;5036331;28;20181;-83
2023/03/09 13:12:32;;;;;;;78.93;20.98;;;8.60;99.90;;;;;;5018115;28;20184;-81
2023/03/09 13:15:05;;;;;;;81.53;23.60;;;8.80;99.90;;;;;;5036083;28;20161;-81
2023/03/09 13:17:32;;;;;;;85.90;26.40;;;8.50;99.90;;;;;;5018685;28;20667;-81
2023/03/09 13:20:25;;;;;;;84.43;21.15;;;8.40;99.90;;;;;;5036299;28;20192;-81
2023/03/09 13:22:51;;;;;;;80.63;22.13;;;8.60;99.90;;;;;;5018497;28;20248;-81
2023/03/09 13:25:44;;;;;;;78.50;19.30;;;8.80;99.90;;;;;;5034971;28;20172;-81
2023/03/09 13:28:37;;;;;;;77.88;16.60;;;8.70;99.90;;;;;;5036072;28;20173;-81
2023/03/09 13:31:27;;;;;;;;;;;;;;;;;;;;;
2023/03/09 13:33:53;;;;;;;79.68;18.63;;;8.70;99.90;;;;;;5028838;28;20255;-81
2023/03/09 13:36:24;;;;;;;79.47;19.15;;;8.90;99.90;;;;;;5039448;28;20242;-81
2023/03/09 13:38:55;;;;;;;87.70;19.23;;;8.80;99.90;;;;;;5039273;28;20157;-81
2023/03/09 13:41:25;;;;;;;83.15;18.85;;;9.00;99.90;;;;;;5022374;28;20176;-81
2023/03/09 13:43:58;;;;;;;84.05;21.70;;;9.10;99.90;;;;;;5056305;23;20234;-81
2023/03/09 13:46:34;;;;;;;82.63;17.75;;;9.00;99.90;;;;;;5040291;28;20166;-81
2023/03/09 13:49:25;;;;;;;81.93;19.80;;;9.20;99.90;;;;;;5022599;28;20606;-81
2023/03/09 13:52:08;;;;;;;80.15;19.50;;;9.20;99.90;;;;;;5040131;28;20188;-81
2023/03/09 13:54:39;;;;;;;83.68;23.30;;;9.00;99.90;;;;;;5059663;28;20600;-81
2023/03/09 13:57:17;;;;;;;84.18;25.65;;;8.90;99.90;;;;;;5042377;28;20161;-81
2023/03/09 14:00:16;;;;;;;82.85;19.95;;;8.90;99.90;;;;;;5042306;28;20168;-81
2023/03/09 14:02:55;;;;;;;83.40;20.65;;;8.80;99.90;;;;;;5060048;28;20747;-81
2023/03/09 14:05:25;;;;;;;83.57;20.42;;;8.80;99.90;;;;;;5042732;28;20173;-81
2023/03/09 14:08:19;;;;;;;82.78;18.90;;;9.00;99.90;;;;;;5060518;28;20164;-81
2023/03/09 14:10:47;;;;;;;87.68;18.90;;;9.00;99.90;;;;;;5042306;28;20161;-81